createdAt,value
2022-08-14T00:02:14.396Z,10.70
2022-08-14T00:04:44.919Z,10.70
2022-08-14T00:07:13.906Z,10.70
2022-08-14T00:10:02.129Z,10.70
2022-08-14T00:15:18.999Z,10.50
2022-08-14T00:17:53.575Z,10.50
2022-08-14T00:20:35.964Z,10.40
2022-08-14T00:23:16.641Z,10.40
2022-08-14T00:25:58.612Z,10.50
2022-08-14T00:28:36.075Z,10.40
2022-08-14T00:31:08.103Z,10.40
2022-08-14T00:33:39.258Z,10.40
2022-08-14T00:36:37.635Z,10.50
2022-08-14T00:39:14.794Z,10.40
2022-08-14T00:45:55.286Z,10.30
2022-08-14T00:48:34.723Z,10.30
2022-08-14T00:51:07.955Z,10.30
2022-08-14T00:53:36.639Z,10.20
2022-08-14T00:56:08.598Z,10.10
2022-08-14T00:58:45.260Z,10.10
2022-08-14T01:01:16.728Z,10.10
2022-08-14T01:03:45.645Z,10.20
2022-08-14T01:06:16.959Z,10.20
2022-08-14T01:08:52.170Z,10.20
2022-08-14T01:11:35.649Z,10.20
2022-08-14T01:14:25.266Z,10.40
2022-08-14T01:16:55.399Z,10.10
2022-08-14T01:19:24.995Z,10.00
2022-08-14T01:21:53.357Z,10.10
2022-08-14T01:24:30.820Z,9.90
2022-08-14T01:27:02.697Z,9.90
2022-08-14T01:29:59.034Z,9.80
2022-08-14T01:32:23.073Z,9.80
2022-08-14T01:35:17.701Z,9.80
2022-08-14T01:37:44.129Z,9.80
2022-08-14T01:40:12.169Z,9.70
2022-08-14T01:42:44.704Z,9.70
2022-08-14T01:45:12.119Z,9.70
2022-08-14T01:47:40.252Z,9.70
2022-08-14T01:50:10.163Z,9.70
2022-08-14T01:52:58.859Z,9.70
2022-08-14T01:55:27.201Z,9.70
2022-08-14T01:58:19.014Z,9.60
2022-08-14T02:00:43.187Z,9.60
2022-08-14T02:03:15.930Z,9.70
2022-08-14T02:05:43.260Z,9.80
2022-08-14T02:08:10.752Z,9.60
2022-08-14T02:10:46.643Z,9.50
2022-08-14T02:13:16.758Z,9.50
2022-08-14T02:15:45.745Z,9.50
2022-08-14T02:18:16.152Z,9.40
2022-08-14T02:20:43.416Z,9.30
2022-08-14T02:23:11.475Z,9.30
2022-08-14T02:25:39.469Z,9.40
2022-08-14T02:28:22.182Z,9.40
2022-08-14T02:30:54.574Z,9.30
2022-08-14T02:33:21.880Z,9.40
2022-08-14T02:35:53.442Z,9.40
2022-08-14T02:38:35.102Z,9.30
2022-08-14T02:45:12.543Z,9.30
2022-08-14T02:47:39.726Z,9.20
2022-08-14T02:50:15.248Z,9.10
2022-08-14T02:53:05.707Z,9.10
2022-08-14T02:55:32.073Z,9.10
2022-08-14T02:58:03.573Z,9.20
2022-08-14T03:00:35.078Z,9.10
2022-08-14T03:03:07.841Z,9.20
2022-08-14T03:05:36.993Z,9.10
2022-08-14T03:08:15.995Z,9.00
2022-08-14T03:10:48.736Z,9.00
2022-08-14T03:13:21.452Z,9.00
2022-08-14T03:15:56.111Z,9.00
2022-08-14T03:18:31.512Z,9.10
2022-08-14T03:21:07.445Z,9.00
2022-08-14T03:23:37.681Z,9.10
2022-08-14T03:26:18.262Z,9.00
2022-08-14T03:28:57.387Z,9.00
2022-08-14T03:35:37.442Z,8.80
2022-08-14T03:39:12.192Z,8.80
2022-08-14T03:40:58.124Z,8.80
2022-08-14T03:43:28.423Z,8.70
2022-08-14T03:45:59.785Z,8.70
2022-08-14T03:48:31.112Z,8.70
2022-08-14T03:55:12.512Z,8.60
2022-08-14T03:57:42.681Z,8.60
2022-08-14T04:00:27.692Z,8.50
2022-08-14T04:03:02.158Z,8.50
2022-08-14T04:05:29.867Z,8.50
2022-08-14T04:08:28.956Z,8.50
2022-08-14T04:14:57.173Z,8.70
2022-08-14T04:17:24.998Z,8.50
2022-08-14T04:51:56.442Z,8.30
2022-08-14T06:38:23.429Z,11.00
2022-08-14T06:40:53.200Z,11.10
2022-08-14T06:47:34.360Z,11.40
2022-08-14T06:50:03.526Z,11.40
2022-08-14T06:52:32.674Z,11.50
2022-08-14T06:54:59.888Z,11.50
2022-08-14T06:57:40.142Z,11.70
2022-08-14T07:00:22.288Z,11.70
2022-08-14T08:32:43.856Z,14.80
2022-08-14T08:39:16.598Z,15.00
2022-08-14T08:41:50.668Z,15.00
2022-08-14T08:44:31.938Z,15.00
2022-08-14T08:47:03.477Z,15.10
2022-08-14T08:49:43.309Z,15.20
2022-08-14T08:56:30.606Z,15.40
2022-08-14T08:59:20.847Z,15.50
2022-08-14T09:01:57.887Z,15.70
2022-08-14T09:04:45.335Z,15.60
2022-08-14T09:07:27.531Z,15.70
2022-08-14T09:09:59.866Z,15.90
2022-08-14T09:12:33.141Z,15.90
2022-08-14T09:19:00.325Z,15.90
2022-08-14T09:24:28.834Z,16.20
2022-08-14T09:26:49.522Z,16.40
2022-08-14T09:29:22.880Z,16.50
2022-08-14T09:31:58.131Z,16.50
2022-08-14T09:34:58.457Z,16.60
2022-08-14T09:37:48.331Z,16.70
2022-08-14T09:40:59.684Z,16.70
2022-08-14T09:44:04.633Z,16.80
2022-08-14T09:46:35.366Z,16.90
2022-08-14T09:49:16.350Z,16.90
2022-08-14T09:51:58.455Z,17.00
2022-08-14T09:54:47.486Z,16.90
2022-08-14T09:57:30.197Z,17.00
2022-08-14T09:59:57.806Z,17.20
2022-08-14T10:10:43.681Z,17.50
2022-08-14T10:13:26.766Z,17.60
2022-08-14T10:20:03.709Z,17.70
2022-08-14T10:23:12.519Z,17.90
2022-08-14T10:29:31.341Z,18.20
2022-08-14T10:36:00.862Z,18.60
2022-08-14T10:38:33.855Z,18.80
2022-08-14T10:41:16.839Z,18.90
2022-08-14T10:44:04.632Z,19.10
2022-08-14T10:50:44.347Z,19.50
2022-08-14T10:53:13.504Z,19.80
2022-08-14T10:59:57.021Z,20.20
2022-08-14T11:02:54.050Z,20.50
2022-08-14T11:05:25.486Z,20.80
2022-08-14T11:07:59.731Z,20.90
2022-08-14T11:10:57.753Z,21.10
2022-08-14T11:13:31.710Z,21.20
2022-08-14T11:16:54.557Z,21.50
2022-08-14T11:23:38.227Z,22.10
2022-08-14T11:26:10.301Z,22.30
2022-08-14T11:32:50.696Z,22.90
2022-08-14T11:35:25.831Z,23.30
2022-08-14T11:38:11.753Z,23.60
2022-08-14T11:40:39.910Z,24.00
2022-08-14T11:43:09.281Z,24.30
2022-08-14T11:49:52.009Z,24.70
2022-08-14T11:52:19.576Z,24.80
2022-08-14T11:54:58.870Z,25.00
2022-08-14T11:57:26.318Z,25.10
2022-08-14T12:00:14.852Z,25.30
2022-08-14T12:03:03.301Z,25.40
2022-08-14T12:05:40.148Z,25.50
2022-08-14T12:08:13.377Z,25.60
2022-08-14T12:14:56.084Z,25.60
2022-08-14T12:17:31.910Z,25.70
2022-08-14T12:20:30.137Z,25.70
2022-08-14T12:27:01.255Z,25.80
2022-08-14T12:29:28.473Z,25.80
2022-08-14T12:32:04.633Z,25.90
2022-08-14T12:34:34.929Z,26.00
2022-08-14T12:49:17.928Z,26.80
2022-08-14T12:56:21.643Z,26.80
2022-08-14T13:02:59.065Z,26.90
2022-08-14T13:05:31.879Z,26.90
2022-08-14T13:08:05.568Z,26.80
2022-08-14T13:15:27.143Z,26.90
2022-08-14T13:17:58.109Z,27.00
2022-08-14T13:20:27.856Z,27.00
2022-08-14T13:39:36.714Z,27.70
2022-08-14T13:42:08.316Z,27.90
2022-08-14T13:44:38.119Z,28.10
2022-08-14T13:47:10.939Z,28.10
2022-08-14T13:49:40.165Z,28.30
2022-08-14T13:52:14.592Z,28.30
2022-08-14T13:59:44.151Z,28.50
2022-08-14T14:06:25.282Z,28.70
2022-08-14T14:08:59.145Z,28.40
2022-08-14T14:11:29.825Z,28.50
2022-08-14T14:13:58.965Z,28.50
2022-08-14T14:16:30.887Z,28.50
2022-08-14T14:19:04.475Z,28.50
2022-08-14T14:21:34.491Z,28.80
2022-08-14T14:28:02.021Z,28.80
2022-08-14T14:30:51.828Z,28.40
2022-08-14T14:33:44.716Z,28.50
2022-08-14T14:36:07.796Z,28.80
2022-08-14T14:38:40.281Z,29.10
2022-08-14T14:41:08.662Z,29.20
2022-08-14T14:43:41.542Z,29.10
2022-08-14T14:46:13.406Z,29.10
2022-08-14T14:48:46.755Z,29.30
2022-08-14T14:51:21.779Z,29.30
2022-08-14T14:53:49.199Z,29.30
2022-08-14T14:56:51.688Z,29.30
2022-08-14T14:59:05.065Z,29.10
2022-08-14T15:05:33.139Z,29.20
2022-08-14T15:12:00.030Z,29.30
2022-08-14T15:14:55.498Z,29.10
2022-08-14T15:17:35.021Z,29.00
2022-08-14T15:24:02.208Z,28.90
2022-08-14T15:26:32.540Z,28.30
2022-08-14T15:29:06.431Z,28.40
2022-08-14T15:32:08.700Z,28.60
2022-08-14T15:34:46.112Z,28.80
2022-08-14T15:37:20.373Z,28.80
2022-08-14T15:39:52.655Z,28.90
2022-08-14T15:42:22.083Z,28.80
2022-08-14T15:44:57.272Z,28.80
2022-08-14T15:47:31.027Z,28.80
2022-08-14T15:50:01.253Z,28.60
2022-08-14T15:52:35.307Z,28.40
2022-08-14T15:55:09.084Z,28.30
2022-08-14T15:57:39.530Z,28.00
2022-08-14T16:00:43.458Z,27.60
2022-08-14T16:03:12.205Z,27.50
2022-08-14T16:05:41.354Z,27.30
2022-08-14T16:08:28.956Z,27.10
2022-08-14T16:11:00.806Z,27.10
2022-08-14T16:13:39.276Z,26.90
2022-08-14T16:16:49.813Z,26.80
2022-08-14T16:19:45.726Z,26.60
2022-08-14T16:22:59.241Z,26.30
2022-08-14T16:29:10.872Z,25.60
2022-08-14T16:31:38.833Z,25.00
2022-08-14T16:34:44.469Z,24.90
2022-08-14T16:36:55.160Z,24.80
2022-08-14T16:39:23.993Z,24.50
2022-08-14T16:41:53.148Z,24.20
2022-08-14T16:44:33.789Z,24.20
2022-08-14T16:47:05.473Z,24.10
2022-08-14T16:50:02.941Z,23.90
2022-08-14T16:52:26.346Z,23.80
2022-08-14T16:59:20.843Z,23.50
2022-08-14T17:06:25.693Z,23.30
2022-08-14T17:12:45.027Z,22.90
2022-08-14T17:15:15.005Z,22.80
2022-08-14T17:17:57.987Z,22.70
2022-08-14T17:24:57.701Z,22.40
2022-08-14T17:31:58.000Z,22.30
2022-08-14T17:34:46.108Z,22.10
2022-08-14T17:52:34.781Z,21.50
2022-08-14T17:56:05.476Z,21.40
2022-08-14T17:58:41.897Z,21.30
2022-08-14T18:05:10.908Z,21.00
2022-08-14T18:08:00.429Z,20.90
2022-08-14T18:35:11.486Z,20.40
2022-08-14T18:37:42.542Z,20.30
2022-08-14T18:50:31.310Z,20.00
2022-08-14T18:53:10.614Z,19.90
2022-08-14T18:55:53.544Z,19.80
2022-08-14T19:11:24.091Z,19.40
2022-08-14T19:14:05.180Z,19.40
2022-08-14T19:21:01.875Z,19.20
2022-08-14T19:23:42.115Z,19.20
2022-08-14T19:26:33.878Z,19.10
2022-08-14T19:29:35.891Z,19.00
2022-08-14T19:32:36.482Z,18.90
2022-08-14T19:35:24.690Z,18.80
2022-08-14T19:38:08.865Z,18.90
2022-08-14T19:40:56.222Z,18.80
2022-08-14T19:43:50.850Z,18.70
2022-08-14T19:55:18.514Z,18.70
2022-08-14T19:57:57.885Z,18.60
2022-08-14T20:00:29.059Z,18.60
2022-08-14T20:03:10.175Z,18.60
2022-08-14T20:05:42.811Z,18.50
2022-08-14T20:12:29.296Z,18.40
2022-08-14T20:15:11.306Z,18.40
2022-08-14T20:22:34.699Z,18.30
2022-08-14T20:24:54.145Z,18.30
2022-08-14T20:27:33.541Z,18.40
2022-08-14T20:30:35.694Z,18.40
2022-08-14T20:33:11.190Z,18.30
2022-08-14T20:35:49.045Z,18.30
2022-08-14T20:38:30.938Z,18.20
2022-08-14T20:45:13.316Z,18.20
2022-08-14T20:47:53.595Z,18.20
2022-08-14T20:50:28.810Z,18.20
2022-08-14T20:52:59.517Z,18.00
2022-08-14T20:55:41.705Z,18.00
2022-08-14T20:58:44.242Z,18.80
2022-08-14T21:01:19.738Z,17.90
2022-08-14T21:03:56.795Z,17.90
2022-08-14T21:07:23.012Z,17.90
2022-08-14T21:10:05.660Z,17.80
2022-08-14T21:12:35.286Z,17.70
2022-08-14T21:15:11.137Z,17.60
2022-08-14T21:17:39.563Z,17.60
2022-08-14T21:20:25.938Z,17.50
2022-08-14T21:22:56.574Z,17.50
2022-08-14T21:25:29.004Z,17.50
2022-08-14T21:28:06.853Z,17.50
2022-08-14T21:30:46.636Z,17.40
2022-08-14T21:33:19.615Z,17.40
2022-08-14T21:35:54.778Z,17.40
2022-08-14T21:38:33.491Z,17.40
2022-08-14T21:41:41.539Z,17.40
2022-08-14T21:44:01.638Z,17.50
2022-08-14T21:46:30.694Z,17.40
2022-08-14T21:48:57.932Z,17.40
2022-08-14T21:51:53.400Z,17.30
2022-08-14T21:58:52.058Z,17.20
2022-08-14T22:01:10.731Z,17.20
2022-08-14T22:03:46.903Z,17.20
2022-08-14T22:06:28.646Z,17.10
2022-08-14T22:08:59.531Z,17.10
2022-08-14T22:11:28.508Z,17.20
2022-08-14T22:13:56.383Z,17.10
2022-08-14T22:17:02.139Z,17.10
2022-08-14T22:19:20.316Z,17.00
2022-08-14T22:21:50.896Z,17.00
2022-08-14T22:24:37.514Z,17.10
2022-08-14T22:31:23.010Z,17.00
2022-08-14T22:33:57.792Z,16.90
2022-08-14T22:36:26.219Z,16.90
2022-08-14T22:38:55.479Z,16.70
2022-08-14T22:41:31.520Z,16.70
2022-08-14T22:44:14.843Z,16.70
2022-08-14T22:50:55.156Z,16.70
2022-08-14T22:53:22.789Z,16.60
2022-08-14T22:55:52.042Z,16.60
2022-08-14T22:58:30.569Z,16.60
2022-08-14T23:01:00.149Z,16.50
2022-08-14T23:03:29.314Z,16.50
2022-08-14T23:05:56.638Z,16.50
2022-08-14T23:08:59.797Z,16.50
2022-08-14T23:11:13.792Z,16.50
2022-08-14T23:13:43.376Z,16.60
2022-08-14T23:16:19.826Z,16.60
2022-08-14T23:18:53.758Z,16.70
2022-08-14T23:21:24.651Z,16.70
2022-08-14T23:23:57.610Z,16.70
2022-08-14T23:26:48.989Z,16.70
2022-08-14T23:29:17.950Z,16.60
2022-08-14T23:31:45.373Z,16.70
2022-08-14T23:34:20.653Z,16.60
2022-08-14T23:36:55.512Z,16.60
2022-08-14T23:39:32.495Z,16.50
2022-08-14T23:42:09.093Z,16.50
2022-08-14T23:44:38.102Z,16.50
2022-08-14T23:47:10.721Z,16.50
2022-08-14T23:50:01.211Z,16.50
2022-08-14T23:52:51.016Z,16.50
2022-08-14T23:55:16.953Z,16.50
2022-08-14T23:57:57.490Z,16.50
